66.3°F
Current conditions from King Hill
Updated every 5 minutes
 
  Monday July 28, 2014

Station Historical Data
Daily Summary for May 16, 2012 Units:  Both    English   Metric
« Previous Day
Next Day »
Daily Weekly Monthly Yearly Custom
  High: Low: Average:
Temperature: 75.4 °F /  24.1 °C 53.5 °F /  11.9 °C 61.4 °F /  16.3 °C
Dew Point: 63.3 °F /  17.4 °C 43.9 °F /  6.6 °C 56.6 °F /  13.7 °C
Humidity: 96% 52% 85%
Wind Speed: 11.0mph /  17.7km/h - 3.8mph /  6.1km/h
Wind Gust: 23.0mph /  37km/h - -
Wind- - SW
Pressure: 29.87 in /  1011.4 hPa 29.67 in /  1004.6 hPa -
Precipitation: 0.50 in /  12.7 mm    
Historical Graphs
 
 
Tabular Data for May 16, 2012
Time Temperature Dew Point Pressure Wind Wind Speed Wind Gust Humidity Daily Rainfall
00:04 55.5 °F /  13.1 °C 53.8 °F /  12.1 °C 29.87in /  1011.4hPa Calm     94% 0.00in /  0mm
00:09 55.4 °F /  13 °C 53.7 °F /  12.1 °C 29.87in /  1011.4hPa Calm     94% 0.00in /  0mm
00:14 55.4 °F /  13 °C 53.7 °F /  12.1 °C 29.87in /  1011.4hPa Calm     94% 0.00in /  0mm
00:19 55.8 °F /  13.2 °C 54.4 °F /  12.4 °C 29.87in /  1011.4hPa SSW 1.0mph /  1.6km/h 4.0mph /  6.4km/h 95% 0.00in /  0mm
00:25 56.0 °F /  13.3 °C 54.6 °F /  12.6 °C 29.87in /  1011.4hPa Calm   4.0mph /  6.4km/h 95% 0.00in /  0mm
00:35 56.4 °F /  13.6 °C 55.0 °F /  12.8 °C 29.87in /  1011.4hPa Calm   1.0mph /  1.6km/h 95% 0.00in /  0mm
00:44 56.4 °F /  13.6 °C 55.0 °F /  12.8 °C 29.86in /  1011.1hPa Calm   7.0mph /  11.3km/h 95% 0.00in /  0mm
00:49 56.5 °F /  13.6 °C 55.1 °F /  12.8 °C 29.86in /  1011.1hPa Calm   3.0mph /  4.8km/h 95% 0.00in /  0mm
00:54 56.5 °F /  13.6 °C 55.1 °F /  12.8 °C 29.86in /  1011.1hPa Calm   3.0mph /  4.8km/h 95% 0.00in /  0mm
00:59 56.4 °F /  13.6 °C 55.0 °F /  12.8 °C 29.86in /  1011.1hPa Calm     95% 0.00in /  0mm
01:04 56.4 °F /  13.6 °C 55.0 °F /  12.8 °C 29.86in /  1011.1hPa Calm     95% 0.00in /  0mm
01:09 56.8 °F /  13.8 °C 55.4 °F /  13 °C 29.86in /  1011.1hPa Calm   5.0mph /  8km/h 95% 0.00in /  0mm
01:14 56.9 °F /  13.8 °C 55.5 °F /  13.1 °C 29.86in /  1011.1hPa Calm   5.0mph /  8km/h 95% 0.00in /  0mm
01:19 56.9 °F /  13.8 °C 55.5 °F /  13.1 °C 29.86in /  1011.1hPa Calm   5.0mph /  8km/h 95% 0.00in /  0mm
01:25 56.9 °F /  13.8 °C 55.5 °F /  13.1 °C 29.86in /  1011.1hPa SSW 1.0mph /  1.6km/h 5.0mph /  8km/h 95% 0.00in /  0mm
01:34 56.8 °F /  13.8 °C 55.4 °F /  13 °C 29.86in /  1011.1hPa Calm   3.0mph /  4.8km/h 95% 0.00in /  0mm
01:39 56.6 °F /  13.7 °C 55.2 °F /  12.9 °C 29.86in /  1011.1hPa Calm   4.0mph /  6.4km/h 95% 0.00in /  0mm
01:49 56.6 °F /  13.7 °C 55.2 °F /  12.9 °C 29.86in /  1011.1hPa Calm     95% 0.00in /  0mm
01:54 56.7 °F /  13.7 °C 55.3 °F /  12.9 °C 29.86in /  1011.1hPa SSW 1.0mph /  1.6km/h 6.0mph /  9.7km/h 95% 0.00in /  0mm
01:59 56.7 °F /  13.7 °C 55.3 °F /  12.9 °C 29.86in /  1011.1hPa SW 1.0mph /  1.6km/h 6.0mph /  9.7km/h 95% 0.00in /  0mm
02:04 56.6 °F /  13.7 °C 55.2 °F /  12.9 °C 29.85in /  1010.7hPa Calm   4.0mph /  6.4km/h 95% 0.00in /  0mm
02:09 56.6 °F /  13.7 °C 55.2 °F /  12.9 °C 29.85in /  1010.7hPa Calm   4.0mph /  6.4km/h 95% 0.00in /  0mm
02:14 56.6 °F /  13.7 °C 55.2 °F /  12.9 °C 29.84in /  1010.4hPa Calm   4.0mph /  6.4km/h 95% 0.00in /  0mm
02:19 56.4 °F /  13.6 °C 55.0 °F /  12.8 °C 29.84in /  1010.4hPa Calm   5.0mph /  8km/h 95% 0.00in /  0mm
02:24 56.4 °F /  13.6 °C 55.0 °F /  12.8 °C 29.84in /  1010.4hPa Calm   5.0mph /  8km/h 95% 0.00in /  0mm
02:29 56.6 °F /  13.7 °C 55.2 °F /  12.9 °C 29.84in /  1010.4hPa SW 1.0mph /  1.6km/h 4.0mph /  6.4km/h 95% 0.00in /  0mm
02:34 56.5 °F /  13.6 °C 55.1 °F /  12.8 °C 29.83in /  1010hPa Calm   4.0mph /  6.4km/h 95% 0.00in /  0mm
02:39 56.5 °F /  13.6 °C 55.1 °F /  12.8 °C 29.83in /  1010hPa SSW 1.0mph /  1.6km/h 5.0mph /  8km/h 95% 0.00in /  0mm
02:44 56.5 °F /  13.6 °C 55.1 °F /  12.8 °C 29.83in /  1010hPa SSW 2.0mph /  3.2km/h 6.0mph /  9.7km/h 95% 0.00in /  0mm
02:50 56.6 °F /  13.7 °C 55.2 °F /  12.9 °C 29.83in /  1010hPa SSW 3.0mph /  4.8km/h 7.0mph /  11.3km/h 95% 0.00in /  0mm
02:59 56.4 °F /  13.6 °C 55.0 °F /  12.8 °C 29.83in /  1010hPa Calm   7.0mph /  11.3km/h 95% 0.00in /  0mm
03:04 56.3 °F /  13.5 °C 54.9 °F /  12.7 °C 29.83in /  1010hPa Calm   4.0mph /  6.4km/h 95% 0.00in /  0mm
03:09 56.3 °F /  13.5 °C 54.9 °F /  12.7 °C 29.83in /  1010hPa SSW 1.0mph /  1.6km/h 7.0mph /  11.3km/h 95% 0.00in /  0mm
03:14 56.3 °F /  13.5 °C 54.9 °F /  12.7 °C 29.83in /  1010hPa SSW 1.0mph /  1.6km/h 7.0mph /  11.3km/h 95% 0.01in /  0.3mm
03:19 56.4 °F /  13.6 °C 55.0 °F /  12.8 °C 29.83in /  1010hPa SW 1.0mph /  1.6km/h 6.0mph /  9.7km/h 95% 0.01in /  0.3mm
03:24 56.4 °F /  13.6 °C 55.0 °F /  12.8 °C 29.83in /  1010hPa SSW 1.0mph /  1.6km/h 6.0mph /  9.7km/h 95% 0.01in /  0.3mm
03:30 56.4 °F /  13.6 °C 55.0 °F /  12.8 °C 29.83in /  1010hPa SSW 1.0mph /  1.6km/h 7.0mph /  11.3km/h 95% 0.01in /  0.3mm
03:39 56.4 °F /  13.6 °C 55.0 °F /  12.8 °C 29.83in /  1010hPa SSW 3.0mph /  4.8km/h 7.0mph /  11.3km/h 95% 0.01in /  0.3mm
03:44 56.4 °F /  13.6 °C 55.0 °F /  12.8 °C 29.82in /  1009.7hPa SSW 2.0mph /  3.2km/h 7.0mph /  11.3km/h 95% 0.01in /  0.3mm
03:49 56.3 °F /  13.5 °C 54.9 °F /  12.7 °C 29.82in /  1009.7hPa SW 3.0mph /  4.8km/h 7.0mph /  11.3km/h 95% 0.01in /  0.3mm
03:54 56.4 °F /  13.6 °C 55.0 °F /  12.8 °C 29.83in /  1010hPa SSW 2.0mph /  3.2km/h 8.0mph /  12.9km/h 95% 0.01in /  0.3mm
03:59 56.4 °F /  13.6 °C 55.0 °F /  12.8 °C 29.82in /  1009.7hPa SSW 3.0mph /  4.8km/h 8.0mph /  12.9km/h 95% 0.01in /  0.3mm
04:04 56.4 °F /  13.6 °C 55.0 °F /  12.8 °C 29.83in /  1010hPa SSW 1.0mph /  1.6km/h 8.0mph /  12.9km/h 95% 0.01in /  0.3mm
04:09 56.4 °F /  13.6 °C 55.0 °F /  12.8 °C 29.83in /  1010hPa SSW 2.0mph /  3.2km/h 7.0mph /  11.3km/h 95% 0.01in /  0.3mm
04:14 56.4 °F /  13.6 °C 55.0 °F /  12.8 °C 29.83in /  1010hPa SSW 1.0mph /  1.6km/h 7.0mph /  11.3km/h 95% 0.01in /  0.3mm
04:19 56.6 °F /  13.7 °C 55.2 °F /  12.9 °C 29.83in /  1010hPa SSW 2.0mph /  3.2km/h 8.0mph /  12.9km/h 95% 0.01in /  0.3mm
04:24 56.5 °F /  13.6 °C 55.1 °F /  12.8 °C 29.83in /  1010hPa SW 1.0mph /  1.6km/h 8.0mph /  12.9km/h 95% 0.01in /  0.3mm
04:29 56.5 °F /  13.6 °C 55.1 °F /  12.8 °C 29.83in /  1010hPa Calm   10.0mph /  16.1km/h 95% 0.01in /  0.3mm
04:34 56.5 °F /  13.6 °C 55.1 °F /  12.8 °C 29.83in /  1010hPa SSW 2.0mph /  3.2km/h 10.0mph /  16.1km/h 95% 0.01in /  0.3mm
04:39 56.4 °F /  13.6 °C 55.0 °F /  12.8 °C 29.83in /  1010hPa SSW 1.0mph /  1.6km/h 7.0mph /  11.3km/h 95% 0.01in /  0.3mm
04:44 56.5 °F /  13.6 °C 55.1 °F /  12.8 °C 29.83in /  1010hPa SW 1.0mph /  1.6km/h 6.0mph /  9.7km/h 95% 0.01in /  0.3mm
04:49 56.4 °F /  13.6 °C 55.0 °F /  12.8 °C 29.83in /  1010hPa SSW 1.0mph /  1.6km/h 6.0mph /  9.7km/h 95% 0.01in /  0.3mm
04:54 56.3 °F /  13.5 °C 54.9 °F /  12.7 °C 29.83in /  1010hPa Calm   6.0mph /  9.7km/h 95% 0.01in /  0.3mm
04:59 56.3 °F /  13.5 °C 54.9 °F /  12.7 °C 29.83in /  1010hPa SSW 2.0mph /  3.2km/h 7.0mph /  11.3km/h 95% 0.01in /  0.3mm
05:04 56.4 °F /  13.6 °C 55.0 °F /  12.8 °C 29.83in /  1010hPa SSW 2.0mph /  3.2km/h 7.0mph /  11.3km/h 95% 0.01in /  0.3mm
05:09 56.4 °F /  13.6 °C 55.0 °F /  12.8 °C 29.83in /  1010hPa Calm   6.0mph /  9.7km/h 95% 0.01in /  0.3mm
05:14 56.4 °F /  13.6 °C 55.0 °F /  12.8 °C 29.82in /  1009.7hPa Calm   6.0mph /  9.7km/h 95% 0.01in /  0.3mm
05:19 56.3 °F /  13.5 °C 54.9 °F /  12.7 °C 29.82in /  1009.7hPa Calm   1.0mph /  1.6km/h 95% 0.01in /  0.3mm
05:24 56.3 °F /  13.5 °C 54.9 °F /  12.7 °C 29.83in /  1010hPa SSW 1.0mph /  1.6km/h 6.0mph /  9.7km/h 95% 0.01in /  0.3mm
05:29 56.3 °F /  13.5 °C 54.9 °F /  12.7 °C 29.83in /  1010hPa SSW 3.0mph /  4.8km/h 6.0mph /  9.7km/h 95% 0.01in /  0.3mm
05:34 56.5 °F /  13.6 °C 55.4 °F /  13 °C 29.83in /  1010hPa SSW 1.0mph /  1.6km/h 7.0mph /  11.3km/h 96% 0.01in /  0.3mm
05:39 56.6 °F /  13.7 °C 55.5 °F /  13.1 °C 29.83in /  1010hPa SSW 2.0mph /  3.2km/h 7.0mph /  11.3km/h 96% 0.01in /  0.3mm
05:44 56.8 °F /  13.8 °C 55.4 °F /  13 °C 29.83in /  1010hPa Calm   7.0mph /  11.3km/h 95% 0.01in /  0.3mm
05:50 56.9 °F /  13.8 °C 55.8 °F /  13.2 °C 29.83in /  1010hPa SSW 3.0mph /  4.8km/h 7.0mph /  11.3km/h 96% 0.01in /  0.3mm
05:59 57.2 °F /  14 °C 56.1 °F /  13.4 °C 29.83in /  1010hPa SSW 4.0mph /  6.4km/h 8.0mph /  12.9km/h 96% 0.01in /  0.3mm
06:04 57.3 °F /  14.1 °C 56.2 °F /  13.4 °C 29.82in /  1009.7hPa Calm   8.0mph /  12.9km/h 96% 0.01in /  0.3mm
06:09 57.3 °F /  14.1 °C 55.9 °F /  13.3 °C 29.83in /  1010hPa Calm   7.0mph /  11.3km/h 95% 0.01in /  0.3mm
06:14 57.5 °F /  14.2 °C 56.1 °F /  13.4 °C 29.82in /  1009.7hPa SSW 1.0mph /  1.6km/h 8.0mph /  12.9km/h 95% 0.01in /  0.3mm
06:20 57.6 °F /  14.2 °C 56.2 °F /  13.4 °C 29.82in /  1009.7hPa SSW 1.0mph /  1.6km/h 8.0mph /  12.9km/h 95% 0.01in /  0.3mm
06:29 57.7 °F /  14.3 °C 56.3 °F /  13.5 °C 29.82in /  1009.7hPa SSW 1.0mph /  1.6km/h 7.0mph /  11.3km/h 95% 0.01in /  0.3mm
06:34 57.8 °F /  14.3 °C 56.4 °F /  13.6 °C 29.82in /  1009.7hPa SSW 1.0mph /  1.6km/h 7.0mph /  11.3km/h 95% 0.01in /  0.3mm
06:40 57.8 °F /  14.3 °C 56.4 °F /  13.6 °C 29.82in /  1009.7hPa Calm   5.0mph /  8km/h 95% 0.01in /  0.3mm
06:50 58.0 °F /  14.4 °C 56.6 °F /  13.7 °C 29.83in /  1010hPa SW 2.0mph /  3.2km/h 8.0mph /  12.9km/h 95% 0.01in /  0.3mm
06:55 58.1 °F /  14.5 °C 56.7 °F /  13.7 °C 29.83in /  1010hPa SSW 1.0mph /  1.6km/h 8.0mph /  12.9km/h 95% 0.01in /  0.3mm
07:00 58.3 °F /  14.6 °C 56.9 °F /  13.8 °C 29.83in /  1010hPa SSW 2.0mph /  3.2km/h 8.0mph /  12.9km/h 95% 0.01in /  0.3mm
07:09 58.5 °F /  14.7 °C 57.1 °F /  13.9 °C 29.83in /  1010hPa SW 3.0mph /  4.8km/h 7.0mph /  11.3km/h 95% 0.01in /  0.3mm
07:14 58.5 °F /  14.7 °C 57.1 °F /  13.9 °C 29.83in /  1010hPa SSW 2.0mph /  3.2km/h 7.0mph /  11.3km/h 95% 0.01in /  0.3mm
07:19 58.6 °F /  14.8 °C 56.9 °F /  13.8 °C 29.82in /  1009.7hPa SSW 3.0mph /  4.8km/h 9.0mph /  14.5km/h 94% 0.01in /  0.3mm
07:24 58.7 °F /  14.8 °C 57.0 °F /  13.9 °C 29.82in /  1009.7hPa SSW 3.0mph /  4.8km/h 9.0mph /  14.5km/h 94% 0.01in /  0.3mm
07:29 58.8 °F /  14.9 °C 57.1 °F /  13.9 °C 29.83in /  1010hPa SSW 2.0mph /  3.2km/h 8.0mph /  12.9km/h 94% 0.01in /  0.3mm
07:34 59.0 °F /  15 °C 57.3 °F /  14.1 °C 29.83in /  1010hPa SSW 1.0mph /  1.6km/h 8.0mph /  12.9km/h 94% 0.01in /  0.3mm
07:40 59.0 °F /  15 °C 57.3 °F /  14.1 °C 29.83in /  1010hPa SSW 1.0mph /  1.6km/h 7.0mph /  11.3km/h 94% 0.01in /  0.3mm
07:44 59.3 °F /  15.2 °C 57.6 °F /  14.2 °C 29.82in /  1009.7hPa SSW 6.0mph /  9.7km/h 11.0mph /  17.7km/h 94% 0.01in /  0.3mm
07:49 59.5 °F /  15.3 °C 57.5 °F /  14.2 °C 29.82in /  1009.7hPa SSW 5.0mph /  8km/h 11.0mph /  17.7km/h 93% 0.01in /  0.3mm
07:54 59.8 °F /  15.4 °C 57.5 °F /  14.2 °C 29.82in /  1009.7hPa SSW 2.0mph /  3.2km/h 9.0mph /  14.5km/h 92% 0.01in /  0.3mm
07:59 59.9 °F /  15.5 °C 57.6 °F /  14.2 °C 29.82in /  1009.7hPa SSW 4.0mph /  6.4km/h 11.0mph /  17.7km/h 92% 0.01in /  0.3mm
08:04 60.1 °F /  15.6 °C 57.5 °F /  14.2 °C 29.82in /  1009.7hPa SSW 7.0mph /  11.3km/h 12.0mph /  19.3km/h 91% 0.01in /  0.3mm
08:09 60.2 °F /  15.7 °C 57.6 °F /  14.2 °C 29.83in /  1010hPa SSW 2.0mph /  3.2km/h 12.0mph /  19.3km/h 91% 0.01in /  0.3mm
08:14 60.3 °F /  15.7 °C 57.4 °F /  14.1 °C 29.82in /  1009.7hPa SSW 5.0mph /  8km/h 12.0mph /  19.3km/h 90% 0.01in /  0.3mm
08:19 60.4 °F /  15.8 °C 57.5 °F /  14.2 °C 29.82in /  1009.7hPa SSW 4.0mph /  6.4km/h 12.0mph /  19.3km/h 90% 0.01in /  0.3mm
08:25 60.4 °F /  15.8 °C 57.5 °F /  14.2 °C 29.82in /  1009.7hPa SSW 3.0mph /  4.8km/h 12.0mph /  19.3km/h 90% 0.01in /  0.3mm
08:34 60.9 °F /  16.1 °C 58.3 °F /  14.6 °C 29.83in /  1010hPa SSW 5.0mph /  8km/h 11.0mph /  17.7km/h 91% 0.01in /  0.3mm
08:39 61.3 °F /  16.3 °C 58.3 °F /  14.6 °C 29.83in /  1010hPa SSW 5.0mph /  8km/h 11.0mph /  17.7km/h 90% 0.01in /  0.3mm
08:44 61.6 °F /  16.4 °C 58.3 °F /  14.6 °C 29.83in /  1010hPa SSW 5.0mph /  8km/h 12.0mph /  19.3km/h 89% 0.01in /  0.3mm
08:49 62.1 °F /  16.7 °C 58.8 °F /  14.9 °C 29.82in /  1009.7hPa SSW 3.0mph /  4.8km/h 12.0mph /  19.3km/h 89% 0.01in /  0.3mm
08:54 62.5 °F /  16.9 °C 58.9 °F /  14.9 °C 29.82in /  1009.7hPa SSW 5.0mph /  8km/h 12.0mph /  19.3km/h 88% 0.01in /  0.3mm
08:59 62.9 °F /  17.2 °C 59.3 °F /  15.2 °C 29.82in /  1009.7hPa South 4.0mph /  6.4km/h 13.0mph /  20.9km/h 88% 0.01in /  0.3mm
09:04 63.2 °F /  17.3 °C 59.3 °F /  15.2 °C 29.82in /  1009.7hPa SSW 1.0mph /  1.6km/h 13.0mph /  20.9km/h 87% 0.01in /  0.3mm
09:09 63.5 °F /  17.5 °C 59.6 °F /  15.3 °C 29.82in /  1009.7hPa SSW 2.0mph /  3.2km/h 10.0mph /  16.1km/h 87% 0.01in /  0.3mm
09:14 63.7 °F /  17.6 °C 59.1 °F /  15.1 °C 29.82in /  1009.7hPa South 4.0mph /  6.4km/h 10.0mph /  16.1km/h 85% 0.01in /  0.3mm
09:19 63.6 °F /  17.6 °C 59.0 °F /  15 °C 29.81in /  1009.4hPa SSW 2.0mph /  3.2km/h 9.0mph /  14.5km/h 85% 0.01in /  0.3mm
09:24 63.9 °F /  17.7 °C 59.3 °F /  15.2 °C 29.81in /  1009.4hPa SSW 2.0mph /  3.2km/h 8.0mph /  12.9km/h 85% 0.01in /  0.3mm
09:29 63.8 °F /  17.7 °C 58.9 °F /  14.9 °C 29.81in /  1009.4hPa SSW 7.0mph /  11.3km/h 13.0mph /  20.9km/h 84% 0.01in /  0.3mm
09:34 63.9 °F /  17.7 °C 59.3 °F /  15.2 °C 29.80in /  1009hPa South 2.0mph /  3.2km/h 13.0mph /  20.9km/h 85% 0.01in /  0.3mm
09:40 63.9 °F /  17.7 °C 59.3 °F /  15.2 °C 29.80in /  1009hPa SSE 1.0mph /  1.6km/h 10.0mph /  16.1km/h 85% 0.01in /  0.3mm
09:49 64.6 °F /  18.1 °C 60.0 °F /  15.6 °C 29.80in /  1009hPa SSW 3.0mph /  4.8km/h 10.0mph /  16.1km/h 85% 0.01in /  0.3mm
09:54 65.4 °F /  18.6 °C 60.4 °F /  15.8 °C 29.80in /  1009hPa Calm   10.0mph /  16.1km/h 84% 0.01in /  0.3mm
09:59 65.6 °F /  18.7 °C 59.6 °F /  15.3 °C 29.79in /  1008.7hPa SSW 7.0mph /  11.3km/h 14.0mph /  22.5km/h 81% 0.01in /  0.3mm
10:04 65.9 °F /  18.8 °C 60.6 °F /  15.9 °C 29.79in /  1008.7hPa SSW 5.0mph /  8km/h 16.0mph /  25.7km/h 83% 0.01in /  0.3mm
10:09 66.1 °F /  18.9 °C 60.1 °F /  15.6 °C 29.79in /  1008.7hPa SSW 7.0mph /  11.3km/h 16.0mph /  25.7km/h 81% 0.01in /  0.3mm
10:14 66.6 °F /  19.2 °C 60.2 °F /  15.7 °C 29.80in /  1009hPa SSW 6.0mph /  9.7km/h 12.0mph /  19.3km/h 80% 0.01in /  0.3mm
10:19 66.4 °F /  19.1 °C 60.0 °F /  15.6 °C 29.80in /  1009hPa SSW 5.0mph /  8km/h 12.0mph /  19.3km/h 80% 0.01in /  0.3mm
10:24 66.9 °F /  19.4 °C 60.5 °F /  15.8 °C 29.79in /  1008.7hPa SSW 1.0mph /  1.6km/h 12.0mph /  19.3km/h 80% 0.01in /  0.3mm
10:29 67.4 °F /  19.7 °C 61.0 °F /  16.1 °C 29.79in /  1008.7hPa SSW 4.0mph /  6.4km/h 15.0mph /  24.1km/h 80% 0.01in /  0.3mm
10:34 68.0 °F /  20 °C 61.3 °F /  16.3 °C 29.79in /  1008.7hPa SSW 7.0mph /  11.3km/h 15.0mph /  24.1km/h 79% 0.01in /  0.3mm
10:44 68.3 °F /  20.2 °C 60.5 °F /  15.8 °C 29.79in /  1008.7hPa SSW 5.0mph /  8km/h 15.0mph /  24.1km/h 76% 0.01in /  0.3mm
10:49 68.5 °F /  20.3 °C 60.6 °F /  15.9 °C 29.78in /  1008.4hPa SSW 4.0mph /  6.4km/h 15.0mph /  24.1km/h 76% 0.01in /  0.3mm
10:54 68.4 °F /  20.2 °C 60.2 °F /  15.7 °C 29.78in /  1008.4hPa SW 8.0mph /  12.9km/h 16.0mph /  25.7km/h 75% 0.01in /  0.3mm
10:59 68.5 °F /  20.3 °C 60.6 °F /  15.9 °C 29.78in /  1008.4hPa SSW 5.0mph /  8km/h 18.0mph /  29km/h 76% 0.01in /  0.3mm
11:04 68.6 °F /  20.3 °C 60.0 °F /  15.6 °C 29.78in /  1008.4hPa South 5.0mph /  8km/h 18.0mph /  29km/h 74% 0.01in /  0.3mm
11:09 69.2 °F /  20.7 °C 59.8 °F /  15.4 °C 29.78in /  1008.4hPa SW 6.0mph /  9.7km/h 15.0mph /  24.1km/h 72% 0.01in /  0.3mm
11:14 69.6 °F /  20.9 °C 59.4 °F /  15.2 °C 29.78in /  1008.4hPa SSW 7.0mph /  11.3km/h 15.0mph /  24.1km/h 70% 0.01in /  0.3mm
11:19 69.9 °F /  21.1 °C 60.9 °F /  16.1 °C 29.78in /  1008.4hPa SW 5.0mph /  8km/h 16.0mph /  25.7km/h 73% 0.01in /  0.3mm
11:24 70.0 °F /  21.1 °C 60.6 °F /  15.9 °C 29.78in /  1008.4hPa SW 7.0mph /  11.3km/h 16.0mph /  25.7km/h 72% 0.01in /  0.3mm
11:29 70.1 °F /  21.2 °C 60.3 °F /  15.7 °C 29.78in /  1008.4hPa SSW 7.0mph /  11.3km/h 16.0mph /  25.7km/h 71% 0.01in /  0.3mm
11:34 70.4 °F /  21.3 °C 61.0 °F /  16.1 °C 29.77in /  1008hPa SW 4.0mph /  6.4km/h 15.0mph /  24.1km/h 72% 0.01in /  0.3mm
11:39 70.1 °F /  21.2 °C 60.7 °F /  15.9 °C 29.76in /  1007.7hPa SW 6.0mph /  9.7km/h 18.0mph /  29km/h 72% 0.01in /  0.3mm
11:44 70.2 °F /  21.2 °C 60.4 °F /  15.8 °C 29.76in /  1007.7hPa SSW 4.0mph /  6.4km/h 18.0mph /  29km/h 71% 0.01in /  0.3mm
11:49 70.2 °F /  21.2 °C 60.4 °F /  15.8 °C 29.76in /  1007.7hPa SW 6.0mph /  9.7km/h 17.0mph /  27.4km/h 71% 0.01in /  0.3mm
11:54 70.5 °F /  21.4 °C 60.7 °F /  15.9 °C 29.76in /  1007.7hPa SW 4.0mph /  6.4km/h 14.0mph /  22.5km/h 71% 0.01in /  0.3mm
11:59 71.2 °F /  21.8 °C 60.9 °F /  16.1 °C 29.76in /  1007.7hPa SW 6.0mph /  9.7km/h 17.0mph /  27.4km/h 70% 0.01in /  0.3mm
12:04 71.3 °F /  21.8 °C 61.8 °F /  16.6 °C 29.76in /  1007.7hPa WSW 5.0mph /  8km/h 17.0mph /  27.4km/h 72% 0.01in /  0.3mm
12:09 71.2 °F /  21.8 °C 60.9 °F /  16.1 °C 29.76in /  1007.7hPa SW 8.0mph /  12.9km/h 13.0mph /  20.9km/h 70% 0.01in /  0.3mm
12:14 71.2 °F /  21.8 °C 61.3 °F /  16.3 °C 29.75in /  1007.3hPa SSW 5.0mph /  8km/h 14.0mph /  22.5km/h 71% 0.01in /  0.3mm
12:19 71.3 °F /  21.8 °C 61.8 °F /  16.6 °C 29.75in /  1007.3hPa SW 5.0mph /  8km/h 14.0mph /  22.5km/h 72% 0.01in /  0.3mm
12:24 71.4 °F /  21.9 °C 61.1 °F /  16.2 °C 29.75in /  1007.3hPa SSW 5.0mph /  8km/h 16.0mph /  25.7km/h 70% 0.01in /  0.3mm
12:29 71.7 °F /  22.1 °C 62.6 °F /  17 °C 29.75in /  1007.3hPa SW 5.0mph /  8km/h 16.0mph /  25.7km/h 73% 0.01in /  0.3mm
12:34 71.6 °F /  22 °C 62.5 °F /  16.9 °C 29.74in /  1007hPa SSW 3.0mph /  4.8km/h 14.0mph /  22.5km/h 73% 0.01in /  0.3mm
12:39 72.0 °F /  22.2 °C 61.3 °F /  16.3 °C 29.74in /  1007hPa SSW 8.0mph /  12.9km/h 17.0mph /  27.4km/h 69% 0.01in /  0.3mm
12:44 72.1 °F /  22.3 °C 61.8 °F /  16.6 °C 29.74in /  1007hPa SW 7.0mph /  11.3km/h 17.0mph /  27.4km/h 70% 0.01in /  0.3mm
12:49 72.1 °F /  22.3 °C 62.2 °F /  16.8 °C 29.73in /  1006.7hPa SW 5.0mph /  8km/h 15.0mph /  24.1km/h 71% 0.01in /  0.3mm
12:55 71.8 °F /  22.1 °C 61.5 °F /  16.4 °C 29.74in /  1007hPa SW 8.0mph /  12.9km/h 16.0mph /  25.7km/h 70% 0.01in /  0.3mm
13:04 72.0 °F /  22.2 °C 63.3 °F /  17.4 °C 29.73in /  1006.7hPa SW 2.0mph /  3.2km/h 16.0mph /  25.7km/h 74% 0.01in /  0.3mm
13:09 72.0 °F /  22.2 °C 60.9 °F /  16.1 °C 29.73in /  1006.7hPa SSW 11.0mph /  17.7km/h 18.0mph /  29km/h 68% 0.01in /  0.3mm
13:14 71.9 °F /  22.2 °C 60.8 °F /  16 °C 29.73in /  1006.7hPa SSW 10.0mph /  16.1km/h 18.0mph /  29km/h 68% 0.01in /  0.3mm
13:19 71.8 °F /  22.1 °C 61.5 °F /  16.4 °C 29.73in /  1006.7hPa SSW 6.0mph /  9.7km/h 23.0mph /  37km/h 70% 0.01in /  0.3mm
13:24 71.9 °F /  22.2 °C 61.6 °F /  16.4 °C 29.72in /  1006.3hPa SSW 8.0mph /  12.9km/h 23.0mph /  37km/h 70% 0.01in /  0.3mm
13:29 72.0 °F /  22.2 °C 61.3 °F /  16.3 °C 29.72in /  1006.3hPa SSW 3.0mph /  4.8km/h 17.0mph /  27.4km/h 69% 0.01in /  0.3mm
13:34 72.4 °F /  22.4 °C 61.3 °F /  16.3 °C 29.71in /  1006hPa SSW 7.0mph /  11.3km/h 16.0mph /  25.7km/h 68% 0.01in /  0.3mm
13:39 72.5 °F /  22.5 °C 61.4 °F /  16.3 °C 29.71in /  1006hPa SSW 5.0mph /  8km/h 15.0mph /  24.1km/h 68% 0.01in /  0.3mm
13:44 73.0 °F /  22.8 °C 61.4 °F /  16.3 °C 29.71in /  1006hPa South 6.0mph /  9.7km/h 18.0mph /  29km/h 67% 0.01in /  0.3mm
13:50 73.5 °F /  23.1 °C 60.1 °F /  15.6 °C 29.70in /  1005.6hPa SSW 6.0mph /  9.7km/h 18.0mph /  29km/h 63% 0.01in /  0.3mm
13:55 73.5 °F /  23.1 °C 59.2 °F /  15.1 °C 29.69in /  1005.3hPa SSW 6.0mph /  9.7km/h 16.0mph /  25.7km/h 61% 0.01in /  0.3mm
14:04 73.9 °F /  23.3 °C 59.2 °F /  15.1 °C 29.69in /  1005.3hPa South 8.0mph /  12.9km/h 19.0mph /  30.6km/h 60% 0.01in /  0.3mm
14:09 74.2 °F /  23.4 °C 59.0 °F /  15 °C 29.68in /  1005hPa SSW 7.0mph /  11.3km/h 19.0mph /  30.6km/h 59% 0.01in /  0.3mm
14:14 74.9 °F /  23.8 °C 60.1 °F /  15.6 °C 29.68in /  1005hPa SSW 5.0mph /  8km/h 15.0mph /  24.1km/h 60% 0.01in /  0.3mm
14:19 75.2 °F /  24 °C 59.4 °F /  15.2 °C 29.68in /  1005hPa SSW 5.0mph /  8km/h 14.0mph /  22.5km/h 58% 0.01in /  0.3mm
14:24 75.4 °F /  24.1 °C 59.6 °F /  15.3 °C 29.68in /  1005hPa South 3.0mph /  4.8km/h 15.0mph /  24.1km/h 58% 0.01in /  0.3mm
14:29 75.1 °F /  23.9 °C 57.9 °F /  14.4 °C 29.67in /  1004.6hPa SSW 6.0mph /  9.7km/h 15.0mph /  24.1km/h 55% 0.01in /  0.3mm
14:34 73.3 °F /  22.9 °C 55.2 °F /  12.9 °C 29.67in /  1004.6hPa SSW 7.0mph /  11.3km/h 16.0mph /  25.7km/h 53% 0.01in /  0.3mm
14:39 72.4 °F /  22.4 °C 55.8 °F /  13.2 °C 29.68in /  1005hPa Calm   16.0mph /  25.7km/h 56% 0.01in /  0.3mm
14:44 72.0 °F /  22.2 °C 54.5 °F /  12.5 °C 29.68in /  1005hPa SW 4.0mph /  6.4km/h 12.0mph /  19.3km/h 54% 0.01in /  0.3mm
14:49 71.5 °F /  21.9 °C 55.0 °F /  12.8 °C 29.69in /  1005.3hPa SW 2.0mph /  3.2km/h 13.0mph /  20.9km/h 56% 0.01in /  0.3mm
14:55 71.1 °F /  21.7 °C 52.6 °F /  11.4 °C 29.70in /  1005.6hPa SW 7.0mph /  11.3km/h 16.0mph /  25.7km/h 52% 0.01in /  0.3mm
15:04 70.5 °F /  21.4 °C 55.5 °F /  13.1 °C 29.71in /  1006hPa WNW 8.0mph /  12.9km/h 14.0mph /  22.5km/h 59% 0.01in /  0.3mm
15:09 68.6 °F /  20.3 °C 56.8 °F /  13.8 °C 29.71in /  1006hPa West 7.0mph /  11.3km/h 17.0mph /  27.4km/h 66% 0.01in /  0.3mm
15:14 67.1 °F /  19.5 °C 57.8 °F /  14.3 °C 29.72in /  1006.3hPa West 8.0mph /  12.9km/h 17.0mph /  27.4km/h 72% 0.02in /  0.5mm
15:19 65.9 °F /  18.8 °C 58.5 °F /  14.7 °C 29.73in /  1006.7hPa WSW 7.0mph /  11.3km/h 16.0mph /  25.7km/h 77% 0.02in /  0.5mm
15:24 64.8 °F /  18.2 °C 58.5 °F /  14.7 °C 29.73in /  1006.7hPa West 8.0mph /  12.9km/h 18.0mph /  29km/h 80% 0.06in /  1.5mm
15:29 63.5 °F /  17.5 °C 56.5 °F /  13.6 °C 29.70in /  1005.6hPa Calm   18.0mph /  29km/h 78% 0.14in /  3.6mm
15:35 62.7 °F /  17.1 °C 56.8 °F /  13.8 °C 29.69in /  1005.3hPa Calm   18.0mph /  29km/h 81% 0.14in /  3.6mm
15:44 61.8 °F /  16.6 °C 57.2 °F /  14 °C 29.69in /  1005.3hPa Calm   1.0mph /  1.6km/h 85% 0.14in /  3.6mm
15:49 61.4 °F /  16.3 °C 57.5 °F /  14.2 °C 29.69in /  1005.3hPa Calm     87% 0.14in /  3.6mm
15:54 61.1 °F /  16.2 °C 57.2 °F /  14 °C 29.69in /  1005.3hPa Calm   2.0mph /  3.2km/h 87% 0.14in /  3.6mm
15:59 61.1 °F /  16.2 °C 57.5 °F /  14.2 °C 29.70in /  1005.6hPa Calm   2.0mph /  3.2km/h 88% 0.14in /  3.6mm
16:04 61.1 °F /  16.2 °C 57.8 °F /  14.3 °C 29.71in /  1006hPa WSW 3.0mph /  4.8km/h 6.0mph /  9.7km/h 89% 0.14in /  3.6mm
16:09 61.1 °F /  16.2 °C 58.1 °F /  14.5 °C 29.74in /  1007hPa NW 9.0mph /  14.5km/h 14.0mph /  22.5km/h 90% 0.14in /  3.6mm
16:15 60.9 °F /  16.1 °C 57.3 °F /  14.1 °C 29.73in /  1006.7hPa NW 6.0mph /  9.7km/h 17.0mph /  27.4km/h 88% 0.14in /  3.6mm
16:24 60.7 °F /  15.9 °C 57.1 °F /  13.9 °C 29.74in /  1007hPa NW 7.0mph /  11.3km/h 14.0mph /  22.5km/h 88% 0.14in /  3.6mm
16:29 60.3 °F /  15.7 °C 56.7 °F /  13.7 °C 29.74in /  1007hPa NW 5.0mph /  8km/h 14.0mph /  22.5km/h 88% 0.15in /  3.8mm
16:39 59.4 °F /  15.2 °C 55.8 °F /  13.2 °C 29.74in /  1007hPa West 3.0mph /  4.8km/h 11.0mph /  17.7km/h 88% 0.15in /  3.8mm
16:44 59.0 °F /  15 °C 55.8 °F /  13.2 °C 29.75in /  1007.3hPa WNW 1.0mph /  1.6km/h 6.0mph /  9.7km/h 89% 0.20in /  5.1mm
16:49 59.0 °F /  15 °C 55.8 °F /  13.2 °C 29.76in /  1007.7hPa WNW 4.0mph /  6.4km/h 9.0mph /  14.5km/h 89% 0.27in /  6.9mm
16:54 59.0 °F /  15 °C 55.8 °F /  13.2 °C 29.77in /  1008hPa WNW 3.0mph /  4.8km/h 9.0mph /  14.5km/h 89% 0.40in /  10.2mm
16:59 58.8 °F /  14.9 °C 55.6 °F /  13.1 °C 29.77in /  1008hPa WNW 4.0mph /  6.4km/h 8.0mph /  12.9km/h 89% 0.46in /  11.7mm
17:04 58.8 °F /  14.9 °C 55.6 °F /  13.1 °C 29.76in /  1007.7hPa Calm   8.0mph /  12.9km/h 89% 0.48in /  12.2mm
17:09 58.7 °F /  14.8 °C 55.5 °F /  13.1 °C 29.75in /  1007.3hPa Calm   5.0mph /  8km/h 89% 0.50in /  12.7mm
17:14 58.9 °F /  14.9 °C 56.0 °F /  13.3 °C 29.76in /  1007.7hPa Calm   1.0mph /  1.6km/h 90% 0.50in /  12.7mm
17:19 59.4 °F /  15.2 °C 57.1 °F /  13.9 °C 29.76in /  1007.7hPa WNW 2.0mph /  3.2km/h 4.0mph /  6.4km/h 92% 0.50in /  12.7mm
17:24 59.8 °F /  15.4 °C 57.5 °F /  14.2 °C 29.75in /  1007.3hPa ESE 2.0mph /  3.2km/h 4.0mph /  6.4km/h 92% 0.50in /  12.7mm
17:29 60.0 °F /  15.6 °C 57.7 °F /  14.3 °C 29.75in /  1007.3hPa ESE 2.0mph /  3.2km/h 4.0mph /  6.4km/h 92% 0.50in /  12.7mm
17:39 60.3 °F /  15.7 °C 58.0 °F /  14.4 °C 29.75in /  1007.3hPa Calm   5.0mph /  8km/h 92% 0.50in /  12.7mm
17:44 60.3 °F /  15.7 °C 57.7 °F /  14.3 °C 29.74in /  1007hPa Calm   6.0mph /  9.7km/h 91% 0.50in /  12.7mm
17:49 61.1 °F /  16.2 °C 58.5 °F /  14.7 °C 29.74in /  1007hPa Calm   6.0mph /  9.7km/h 91% 0.50in /  12.7mm
17:54 62.0 °F /  16.7 °C 59.3 °F /  15.2 °C 29.74in /  1007hPa Calm   2.0mph /  3.2km/h 91% 0.50in /  12.7mm
17:59 62.5 °F /  16.9 °C 58.9 °F /  14.9 °C 29.74in /  1007hPa Calm   2.0mph /  3.2km/h 88% 0.50in /  12.7mm
18:04 62.5 °F /  16.9 °C 58.3 °F /  14.6 °C 29.74in /  1007hPa Calm   1.0mph /  1.6km/h 86% 0.50in /  12.7mm
18:09 62.7 °F /  17.1 °C 58.5 °F /  14.7 °C 29.74in /  1007hPa Calm     86% 0.50in /  12.7mm
18:14 62.9 °F /  17.2 °C 59.0 °F /  15 °C 29.73in /  1006.7hPa Calm     87% 0.50in /  12.7mm
18:19 63.0 °F /  17.2 °C 59.1 °F /  15.1 °C 29.74in /  1007hPa Calm     87% 0.50in /  12.7mm
18:24 63.0 °F /  17.2 °C 58.4 °F /  14.7 °C 29.74in /  1007hPa Calm     85% 0.50in /  12.7mm
18:34 63.5 °F /  17.5 °C 57.9 °F /  14.4 °C 29.73in /  1006.7hPa Calm   3.0mph /  4.8km/h 82% 0.50in /  12.7mm
18:39 63.6 °F /  17.6 °C 59.0 °F /  15 °C 29.74in /  1007hPa Calm   3.0mph /  4.8km/h 85% 0.50in /  12.7mm
18:44 63.1 °F /  17.3 °C 58.8 °F /  14.9 °C 29.73in /  1006.7hPa Calm     86% 0.50in /  12.7mm
18:49 63.1 °F /  17.3 °C 59.5 °F /  15.3 °C 29.74in /  1007hPa Calm     88% 0.50in /  12.7mm
18:54 62.9 °F /  17.2 °C 59.0 °F /  15 °C 29.73in /  1006.7hPa Calm     87% 0.50in /  12.7mm
18:59 62.8 °F /  17.1 °C 58.6 °F /  14.8 °C 29.73in /  1006.7hPa Calm     86% 0.50in /  12.7mm
19:04 62.8 °F /  17.1 °C 58.9 °F /  14.9 °C 29.73in /  1006.7hPa Calm     87% 0.50in /  12.7mm
19:09 62.9 °F /  17.2 °C 59.0 °F /  15 °C 29.73in /  1006.7hPa Calm   1.0mph /  1.6km/h 87% 0.50in /  12.7mm
19:14 62.8 °F /  17.1 °C 58.6 °F /  14.8 °C 29.73in /  1006.7hPa SSW 1.0mph /  1.6km/h 3.0mph /  4.8km/h 86% 0.50in /  12.7mm
19:19 62.7 °F /  17.1 °C 58.5 °F /  14.7 °C 29.74in /  1007hPa Calm   3.0mph /  4.8km/h 86% 0.50in /  12.7mm
19:24 62.6 °F /  17 °C 58.4 °F /  14.7 °C 29.73in /  1006.7hPa Calm   1.0mph /  1.6km/h 86% 0.50in /  12.7mm
19:29 62.4 °F /  16.9 °C 58.5 °F /  14.7 °C 29.73in /  1006.7hPa Calm   1.0mph /  1.6km/h 87% 0.50in /  12.7mm
19:34 62.3 °F /  16.8 °C 58.4 °F /  14.7 °C 29.73in /  1006.7hPa SSW 1.0mph /  1.6km/h 4.0mph /  6.4km/h 87% 0.50in /  12.7mm
19:39 61.9 °F /  16.6 °C 58.0 °F /  14.4 °C 29.73in /  1006.7hPa SSW 1.0mph /  1.6km/h 4.0mph /  6.4km/h 87% 0.50in /  12.7mm
19:44 61.5 °F /  16.4 °C 57.6 °F /  14.2 °C 29.73in /  1006.7hPa Calm   3.0mph /  4.8km/h 87% 0.50in /  12.7mm
19:49 61.1 °F /  16.2 °C 57.2 °F /  14 °C 29.73in /  1006.7hPa SSW 1.0mph /  1.6km/h 4.0mph /  6.4km/h 87% 0.50in /  12.7mm
19:54 60.7 °F /  15.9 °C 57.1 °F /  13.9 °C 29.73in /  1006.7hPa Calm   4.0mph /  6.4km/h 88% 0.50in /  12.7mm
19:59 60.5 °F /  15.8 °C 56.9 °F /  13.8 °C 29.73in /  1006.7hPa SSW 3.0mph /  4.8km/h 4.0mph /  6.4km/h 88% 0.50in /  12.7mm
20:04 60.2 °F /  15.7 °C 56.9 °F /  13.8 °C 29.73in /  1006.7hPa SSW 2.0mph /  3.2km/h 4.0mph /  6.4km/h 89% 0.50in /  12.7mm
20:09 59.8 °F /  15.4 °C 56.6 °F /  13.7 °C 29.73in /  1006.7hPa SSW 2.0mph /  3.2km/h 4.0mph /  6.4km/h 89% 0.50in /  12.7mm
20:14 59.5 °F /  15.3 °C 56.3 °F /  13.5 °C 29.73in /  1006.7hPa SSW 1.0mph /  1.6km/h 4.0mph /  6.4km/h 89% 0.50in /  12.7mm
20:19 59.1 °F /  15.1 °C 55.9 °F /  13.3 °C 29.73in /  1006.7hPa SSW 1.0mph /  1.6km/h 4.0mph /  6.4km/h 89% 0.50in /  12.7mm
20:24 59.0 °F /  15 °C 55.8 °F /  13.2 °C 29.73in /  1006.7hPa SSW 1.0mph /  1.6km/h 3.0mph /  4.8km/h 89% 0.50in /  12.7mm
20:30 58.6 °F /  14.8 °C 55.7 °F /  13.2 °C 29.73in /  1006.7hPa Calm   3.0mph /  4.8km/h 90% 0.50in /  12.7mm
20:40 57.9 °F /  14.4 °C 55.0 °F /  12.8 °C 29.73in /  1006.7hPa SSW 2.0mph /  3.2km/h 3.0mph /  4.8km/h 90% 0.50in /  12.7mm
20:49 57.2 °F /  14 °C 54.3 °F /  12.4 °C 29.74in /  1007hPa Calm   2.0mph /  3.2km/h 90% 0.50in /  12.7mm
20:54 56.8 °F /  13.8 °C 53.9 °F /  12.2 °C 29.74in /  1007hPa Calm     90% 0.50in /  12.7mm
20:59 56.4 °F /  13.6 °C 53.5 °F /  11.9 °C 29.74in /  1007hPa Calm   3.0mph /  4.8km/h 90% 0.50in /  12.7mm
21:04 56.4 °F /  13.6 °C 53.8 °F /  12.1 °C 29.74in /  1007hPa Calm   3.0mph /  4.8km/h 91% 0.50in /  12.7mm
21:09 56.6 °F /  13.7 °C 54.0 °F /  12.2 °C 29.74in /  1007hPa SSW 1.0mph /  1.6km/h 5.0mph /  8km/h 91% 0.50in /  12.7mm
21:14 56.9 °F /  13.8 °C 54.3 °F /  12.4 °C 29.75in /  1007.3hPa SSW 2.0mph /  3.2km/h 5.0mph /  8km/h 91% 0.50in /  12.7mm
21:19 57.0 °F /  13.9 °C 54.4 °F /  12.4 °C 29.75in /  1007.3hPa Calm   5.0mph /  8km/h 91% 0.50in /  12.7mm
21:24 57.0 °F /  13.9 °C 54.4 °F /  12.4 °C 29.75in /  1007.3hPa SSW 1.0mph /  1.6km/h 4.0mph /  6.4km/h 91% 0.50in /  12.7mm
21:29 57.0 °F /  13.9 °C 54.4 °F /  12.4 °C 29.76in /  1007.7hPa SSW 1.0mph /  1.6km/h 4.0mph /  6.4km/h 91% 0.50in /  12.7mm
21:34 57.2 °F /  14 °C 54.6 °F /  12.6 °C 29.76in /  1007.7hPa Calm   6.0mph /  9.7km/h 91% 0.50in /  12.7mm
21:39 57.3 °F /  14.1 °C 54.7 °F /  12.6 °C 29.76in /  1007.7hPa SW 1.0mph /  1.6km/h 6.0mph /  9.7km/h 91% 0.50in /  12.7mm
21:44 57.5 °F /  14.2 °C 54.9 °F /  12.7 °C 29.76in /  1007.7hPa SSW 1.0mph /  1.6km/h 7.0mph /  11.3km/h 91% 0.50in /  12.7mm
21:49 57.5 °F /  14.2 °C 54.9 °F /  12.7 °C 29.76in /  1007.7hPa SSW 1.0mph /  1.6km/h 7.0mph /  11.3km/h 91% 0.50in /  12.7mm
21:54 57.4 °F /  14.1 °C 54.8 °F /  12.7 °C 29.76in /  1007.7hPa Calm   3.0mph /  4.8km/h 91% 0.50in /  12.7mm
21:59 57.2 °F /  14 °C 54.6 °F /  12.6 °C 29.77in /  1008hPa Calm   4.0mph /  6.4km/h 91% 0.50in /  12.7mm
22:04 57.1 °F /  13.9 °C 54.5 °F /  12.5 °C 29.77in /  1008hPa SSW 1.0mph /  1.6km/h 4.0mph /  6.4km/h 91% 0.50in /  12.7mm
22:09 56.9 °F /  13.8 °C 54.3 °F /  12.4 °C 29.77in /  1008hPa Calm   4.0mph /  6.4km/h 91% 0.50in /  12.7mm
22:14 56.8 °F /  13.8 °C 54.2 °F /  12.3 °C 29.77in /  1008hPa Calm   3.0mph /  4.8km/h 91% 0.50in /  12.7mm
22:19 56.7 °F /  13.7 °C 54.1 °F /  12.3 °C 29.78in /  1008.4hPa SSW 1.0mph /  1.6km/h 5.0mph /  8km/h 91% 0.50in /  12.7mm
22:24 56.8 °F /  13.8 °C 54.2 °F /  12.3 °C 29.78in /  1008.4hPa SW 2.0mph /  3.2km/h 8.0mph /  12.9km/h 91% 0.50in /  12.7mm
22:29 57.1 °F /  13.9 °C 54.5 °F /  12.5 °C 29.78in /  1008.4hPa SW 2.0mph /  3.2km/h 8.0mph /  12.9km/h 91% 0.50in /  12.7mm
22:34 57.2 °F /  14 °C 54.6 °F /  12.6 °C 29.79in /  1008.7hPa WSW 6.0mph /  9.7km/h 9.0mph /  14.5km/h 91% 0.50in /  12.7mm
22:39 57.4 °F /  14.1 °C 54.2 °F /  12.3 °C 29.79in /  1008.7hPa West 4.0mph /  6.4km/h 11.0mph /  17.7km/h 89% 0.50in /  12.7mm
22:44 57.3 °F /  14.1 °C 52.8 °F /  11.6 °C 29.79in /  1008.7hPa WNW 8.0mph /  12.9km/h 14.0mph /  22.5km/h 85% 0.50in /  12.7mm
22:49 57.3 °F /  14.1 °C 51.9 °F /  11.1 °C 29.80in /  1009hPa West 6.0mph /  9.7km/h 15.0mph /  24.1km/h 82% 0.50in /  12.7mm
22:54 57.2 °F /  14 °C 50.8 °F /  10.4 °C 29.80in /  1009hPa West 5.0mph /  8km/h 15.0mph /  24.1km/h 79% 0.50in /  12.7mm
22:59 56.7 °F /  13.7 °C 49.2 °F /  9.6 °C 29.80in /  1009hPa West 7.0mph /  11.3km/h 15.0mph /  24.1km/h 76% 0.50in /  12.7mm
23:04 56.4 °F /  13.6 °C 48.9 °F /  9.4 °C 29.81in /  1009.4hPa West 4.0mph /  6.4km/h 12.0mph /  19.3km/h 76% 0.50in /  12.7mm
23:09 55.9 °F /  13.3 °C 47.7 °F /  8.7 °C 29.81in /  1009.4hPa West 6.0mph /  9.7km/h 12.0mph /  19.3km/h 74% 0.50in /  12.7mm
23:14 55.8 °F /  13.2 °C 46.5 °F /  8.1 °C 29.82in /  1009.7hPa West 7.0mph /  11.3km/h 18.0mph /  29km/h 71% 0.50in /  12.7mm
23:19 55.6 °F /  13.1 °C 45.2 °F /  7.3 °C 29.82in /  1009.7hPa West 7.0mph /  11.3km/h 19.0mph /  30.6km/h 68% 0.50in /  12.7mm
23:24 55.4 °F /  13 °C 45.0 °F /  7.2 °C 29.82in /  1009.7hPa WNW 7.0mph /  11.3km/h 19.0mph /  30.6km/h 68% 0.50in /  12.7mm
23:29 55.3 °F /  12.9 °C 44.9 °F /  7.2 °C 29.83in /  1010hPa WSW 3.0mph /  4.8km/h 13.0mph /  20.9km/h 68% 0.50in /  12.7mm
23:34 55.0 °F /  12.8 °C 45.0 °F /  7.2 °C 29.83in /  1010hPa WSW 4.0mph /  6.4km/h 10.0mph /  16.1km/h 69% 0.50in /  12.7mm
23:39 54.8 °F /  12.7 °C 44.8 °F /  7.1 °C 29.83in /  1010hPa WSW 6.0mph /  9.7km/h 15.0mph /  24.1km/h 69% 0.50in /  12.7mm
23:44 54.7 °F /  12.6 °C 44.4 °F /  6.9 °C 29.84in /  1010.4hPa West 10.0mph /  16.1km/h 21.0mph /  33.8km/h 68% 0.50in /  12.7mm
23:49 54.5 °F /  12.5 °C 44.2 °F /  6.8 °C 29.84in /  1010.4hPa West 5.0mph /  8km/h 21.0mph /  33.8km/h 68% 0.50in /  12.7mm
23:54 53.8 °F /  12.1 °C 43.9 °F /  6.6 °C 29.84in /  1010.4hPa West 7.0mph /  11.3km/h 17.0mph /  27.4km/h 69% 0.50in /  12.7mm
23:59 53.5 °F /  11.9 °C 44.0 °F /  6.7 °C 29.85in /  1010.7hPa WSW 5.0mph /  8km/h 17.0mph /  27.4km/h 70% 0.50in /  12.7mm
Westford Weather
Compliments of Weather Underground

 
 
Current Radar Loop:

Copyright © WestfordWeather.net 2007-2014. All rights reserved.